RSL46G EDDM-LFPG
Flight info
| Callsign | RSL46G |
|---|---|
| Flight time | N/A |
| Altitude | 34000 |
| Route | GIVMI6Q GIVMI Y101 INBED DCT REKDI DCT LOHRE DCT BOMBI DCT RUDUS DCT BETEX DCT DIK UN857 TOLVU DCT RAPOR DCT VEDUS |
| Aircraft | B738/M-SDE2E3FGHIRWXY/LB1 |
Departure
| Time | 2026-05-03 22:09 |
|---|---|
| Airport | Munich Airport (EDDM) |
Arrival
| Time | N/A |
|---|---|
| Airport | Charles de Gaulle International Airport (LFPG) |
| Time | Latitude | Longitude | Altitude | Speed | Heading |
|---|---|---|---|---|---|
| 2026-05-03 21:30 | 48.35487 | 11.79286 | 1466 ft | 0 kts | 263° |
| 2026-05-03 21:59 | 48.35489 | 11.79310 | 1466 ft | 4 kts | 263° |
| 2026-05-03 21:59 | 48.35492 | 11.79350 | 1466 ft | 4 kts | 263° |
| 2026-05-03 22:00 | 48.35495 | 11.79391 | 1466 ft | 4 kts | 263° |
| 2026-05-03 22:00 | 48.35499 | 11.79424 | 1457 ft | 4 kts | 237° |
| 2026-05-03 22:00 | 48.35518 | 11.79442 | 1466 ft | 4 kts | 179° |
| 2026-05-03 22:00 | 48.35534 | 11.79440 | 1466 ft | 1 kts | 174° |
| 2026-05-03 22:01 | 48.35536 | 11.79440 | 1466 ft | 0 kts | 174° |
| 2026-05-03 22:02 | 48.35533 | 11.79440 | 1466 ft | 2 kts | 174° |
| 2026-05-03 22:03 | 48.35493 | 11.79447 | 1463 ft | 10 kts | 174° |
| 2026-05-03 22:03 | 48.35419 | 11.79459 | 1462 ft | 11 kts | 173° |
| 2026-05-03 22:03 | 48.35346 | 11.79472 | 1456 ft | 10 kts | 173° |
| 2026-05-03 22:03 | 48.35275 | 11.79485 | 1458 ft | 10 kts | 173° |
| 2026-05-03 22:04 | 48.35207 | 11.79497 | 1466 ft | 10 kts | 173° |
| 2026-05-03 22:04 | 48.35140 | 11.79508 | 1466 ft | 10 kts | 174° |
| 2026-05-03 22:04 | 48.35074 | 11.79519 | 1457 ft | 9 kts | 172° |
| 2026-05-03 22:04 | 48.35011 | 11.79531 | 1462 ft | 9 kts | 173° |
| 2026-05-03 22:05 | 48.34946 | 11.79543 | 1466 ft | 10 kts | 173° |
| 2026-05-03 22:05 | 48.34874 | 11.79556 | 1461 ft | 12 kts | 173° |
| 2026-05-03 22:05 | 48.34783 | 11.79556 | 1466 ft | 15 kts | 186° |
| 2026-05-03 22:05 | 48.34693 | 11.79596 | 1464 ft | 15 kts | 113° |
| 2026-05-03 22:06 | 48.34697 | 11.79744 | 1461 ft | 14 kts | 84° |
| 2026-05-03 22:06 | 48.34708 | 11.79885 | 1466 ft | 13 kts | 83° |
| 2026-05-03 22:06 | 48.34719 | 11.80020 | 1466 ft | 13 kts | 83° |
| 2026-05-03 22:06 | 48.34738 | 11.80147 | 1465 ft | 12 kts | 71° |
| 2026-05-03 22:07 | 48.34751 | 11.80275 | 1458 ft | 12 kts | 82° |
| 2026-05-03 22:07 | 48.34727 | 11.80384 | 1464 ft | 12 kts | 145° |
| 2026-05-03 22:07 | 48.34645 | 11.80416 | 1461 ft | 13 kts | 172° |
| 2026-05-03 22:07 | 48.34559 | 11.80424 | 1464 ft | 12 kts | 188° |
| 2026-05-03 22:08 | 48.34494 | 11.80347 | 1456 ft | 12 kts | 233° |
| 2026-05-03 22:08 | 48.34449 | 11.80077 | 1461 ft | 61 kts | 262° |
| 2026-05-03 22:08 | 48.34371 | 11.79057 | 1463 ft | 133 kts | 264° |
| 2026-05-03 22:08 | 48.34239 | 11.77407 | 1665 ft | 178 kts | 263° |
| 2026-05-03 22:09 | 48.34048 | 11.75394 | 2070 ft | 208 kts | 261° |
| 2026-05-03 22:09 | 48.33816 | 11.73159 | 2588 ft | 225 kts | 263° |
| 2026-05-03 22:09 | 48.33688 | 11.70779 | 3430 ft | 228 kts | 264° |
| 2026-05-03 22:10 | 48.33381 | 11.65921 | 5029 ft | 235 kts | 264° |
| 2026-05-03 22:10 | 48.33316 | 11.63468 | 5858 ft | 236 kts | 281° |
| 2026-05-03 22:10 | 48.33986 | 11.61166 | 6402 ft | 253 kts | 302° |
| 2026-05-03 22:10 | 48.35068 | 11.58930 | 6834 ft | 271 kts | 307° |
| 2026-05-03 22:11 | 48.36245 | 11.56667 | 7573 ft | 277 kts | 307° |
| 2026-05-03 22:11 | 48.37414 | 11.54404 | 8383 ft | 279 kts | 306° |
| 2026-05-03 22:11 | 48.38600 | 11.52069 | 9203 ft | 283 kts | 305° |
| 2026-05-03 22:11 | 48.39793 | 11.49688 | 10006 ft | 287 kts | 305° |
| 2026-05-03 22:12 | 48.40997 | 11.47272 | 10732 ft | 291 kts | 305° |
| 2026-05-03 22:12 | 48.42321 | 11.44931 | 11429 ft | 298 kts | 320° |
| 2026-05-03 22:12 | 48.44208 | 11.43505 | 11879 ft | 317 kts | 344° |
| 2026-05-03 22:12 | 48.46458 | 11.42808 | 12078 ft | 341 kts | 348° |
| 2026-05-03 22:13 | 48.48876 | 11.42189 | 12265 ft | 362 kts | 349° |
| 2026-05-03 22:13 | 48.51408 | 11.41556 | 12729 ft | 374 kts | 349° |
| 2026-05-03 22:13 | 48.54000 | 11.40892 | 13318 ft | 380 kts | 349° |
| 2026-05-03 22:13 | 48.56613 | 11.40201 | 13994 ft | 384 kts | 349° |
| 2026-05-03 22:14 | 48.59258 | 11.39485 | 14635 ft | 387 kts | 348° |
| 2026-05-03 22:14 | 48.61916 | 11.38757 | 15265 ft | 391 kts | 348° |
| 2026-05-03 22:14 | 48.64619 | 11.38012 | 15792 ft | 397 kts | 348° |
| 2026-05-03 22:14 | 48.67351 | 11.37259 | 16368 ft | 401 kts | 348° |
| 2026-05-03 22:15 | 48.70046 | 11.36352 | 17002 ft | 403 kts | 339° |
| 2026-05-03 22:15 | 48.72489 | 11.34312 | 17624 ft | 402 kts | 323° |
| 2026-05-03 22:15 | 48.74780 | 11.31865 | 18261 ft | 405 kts | 323° |
| 2026-05-03 22:15 | 48.77024 | 11.29514 | 18749 ft | 409 kts | 324° |
| 2026-05-03 22:16 | 48.79384 | 11.27092 | 19279 ft | 412 kts | 324° |
| 2026-05-03 22:16 | 48.81776 | 11.24663 | 19802 ft | 414 kts | 324° |
| 2026-05-03 22:16 | 48.84208 | 11.22305 | 20339 ft | 417 kts | 329° |
| 2026-05-03 22:16 | 48.86877 | 11.20507 | 20863 ft | 421 kts | 339° |
| 2026-05-03 22:17 | 48.89671 | 11.19110 | 21390 ft | 424 kts | 341° |
| 2026-05-03 22:17 | 48.92497 | 11.17742 | 21894 ft | 427 kts | 341° |
| 2026-05-03 22:17 | 48.95326 | 11.16360 | 22373 ft | 429 kts | 340° |
| 2026-05-03 22:17 | 48.98181 | 11.14940 | 22861 ft | 432 kts | 340° |
| 2026-05-03 22:18 | 49.01001 | 11.13514 | 23360 ft | 434 kts | 340° |
| 2026-05-03 22:18 | 49.03872 | 11.12050 | 23807 ft | 437 kts | 340° |
| 2026-05-03 22:18 | 49.06761 | 11.10571 | 24199 ft | 439 kts | 340° |
| 2026-05-03 22:18 | 49.09661 | 11.09085 | 24586 ft | 441 kts | 339° |
| 2026-05-03 22:19 | 49.12582 | 11.07598 | 24926 ft | 444 kts | 340° |
| 2026-05-03 22:19 | 49.15533 | 11.06124 | 25274 ft | 447 kts | 340° |
| 2026-05-03 22:19 | 49.18501 | 11.04646 | 25648 ft | 449 kts | 340° |
| 2026-05-03 22:19 | 49.21472 | 11.03147 | 26011 ft | 450 kts | 339° |
| 2026-05-03 22:20 | 49.24446 | 11.01618 | 26329 ft | 453 kts | 339° |
| 2026-05-03 22:20 | 49.27442 | 11.00067 | 26632 ft | 455 kts | 339° |
| 2026-05-03 22:20 | 49.30449 | 10.98513 | 26955 ft | 457 kts | 339° |
| 2026-05-03 22:20 | 49.33470 | 10.96954 | 27277 ft | 459 kts | 339° |
| 2026-05-03 22:21 | 49.36437 | 10.95134 | 27575 ft | 459 kts | 330° |
| 2026-05-03 22:21 | 49.39129 | 10.92534 | 27886 ft | 458 kts | 320° |
| 2026-05-03 22:21 | 49.41481 | 10.89338 | 28188 ft | 457 kts | 311° |
| 2026-05-03 22:21 | 49.43517 | 10.85591 | 28490 ft | 457 kts | 307° |
| 2026-05-03 22:22 | 49.45491 | 10.81744 | 28778 ft | 459 kts | 306° |
| 2026-05-03 22:22 | 49.47462 | 10.77884 | 29102 ft | 460 kts | 306° |
| 2026-05-03 22:22 | 49.49449 | 10.74021 | 29526 ft | 459 kts | 306° |
| 2026-05-03 22:22 | 49.51436 | 10.70191 | 30010 ft | 457 kts | 307° |
| 2026-05-03 22:23 | 49.53421 | 10.66386 | 30386 ft | 455 kts | 307° |
| 2026-05-03 22:23 | 49.55395 | 10.62611 | 30678 ft | 455 kts | 307° |
| 2026-05-03 22:23 | 49.57390 | 10.58792 | 30981 ft | 455 kts | 307° |
| 2026-05-03 22:23 | 49.59371 | 10.54996 | 31287 ft | 454 kts | 307° |
| 2026-05-03 22:24 | 49.61346 | 10.51203 | 31627 ft | 453 kts | 307° |
| 2026-05-03 22:24 | 49.63317 | 10.47414 | 31947 ft | 452 kts | 307° |
| 2026-05-03 22:24 | 49.65282 | 10.43624 | 32240 ft | 452 kts | 306° |
| 2026-05-03 22:24 | 49.67154 | 10.39735 | 32542 ft | 451 kts | 303° |
| 2026-05-03 22:25 | 49.68935 | 10.35753 | 32879 ft | 449 kts | 302° |
| 2026-05-03 22:25 | 49.70672 | 10.31749 | 33202 ft | 448 kts | 301° |
| 2026-05-03 22:25 | 49.72395 | 10.27752 | 33511 ft | 448 kts | 301° |
| 2026-05-03 22:25 | 49.74123 | 10.23753 | 33784 ft | 448 kts | 301° |
| 2026-05-03 22:26 | 49.75865 | 10.19746 | 34052 ft | 448 kts | 301° |
| 2026-05-03 22:26 | 49.77608 | 10.15753 | 34297 ft | 448 kts | 301° |
| 2026-05-03 22:26 | 49.79351 | 10.11770 | 34563 ft | 446 kts | 301° |
| 2026-05-03 22:26 | 49.81091 | 10.07797 | 34812 ft | 445 kts | 301° |
| 2026-05-03 22:27 | 49.82827 | 10.03830 | 35059 ft | 445 kts | 301° |
| 2026-05-03 22:27 | 49.84555 | 9.99873 | 35309 ft | 444 kts | 301° |
| 2026-05-03 22:27 | 49.86277 | 9.95924 | 35640 ft | 441 kts | 301° |
| 2026-05-03 22:27 | 49.87968 | 9.92039 | 35886 ft | 440 kts | 301° |
| 2026-05-03 22:28 | 49.89678 | 9.88103 | 36059 ft | 441 kts | 301° |
| 2026-05-03 22:28 | 49.91390 | 9.84157 | 36229 ft | 441 kts | 301° |
| 2026-05-03 22:28 | 49.93100 | 9.80210 | 36463 ft | 440 kts | 301° |
| 2026-05-03 22:28 | 49.94804 | 9.76270 | 36702 ft | 439 kts | 301° |
| 2026-05-03 22:29 | 49.96501 | 9.72340 | 36896 ft | 439 kts | 301° |
| 2026-05-03 22:29 | 49.98200 | 9.68401 | 37088 ft | 439 kts | 301° |
| 2026-05-03 22:29 | 49.99895 | 9.64464 | 37293 ft | 438 kts | 301° |
| 2026-05-03 22:29 | 50.01587 | 9.60532 | 37523 ft | 437 kts | 301° |
| 2026-05-03 22:30 | 50.03280 | 9.56590 | 37669 ft | 438 kts | 301° |
| 2026-05-03 22:30 | 50.04902 | 9.52577 | 37853 ft | 435 kts | 294° |
| 2026-05-03 22:30 | 50.06013 | 9.48230 | 38024 ft | 431 kts | 283° |
| 2026-05-03 22:31 | 50.06697 | 9.39038 | 38056 ft | 428 kts | 267° |
| 2026-05-03 22:31 | 50.06518 | 9.29802 | 38037 ft | 427 kts | 266° |
| 2026-05-03 22:32 | 50.06343 | 9.20580 | 38020 ft | 425 kts | 266° |
| 2026-05-03 22:32 | 50.06269 | 9.15984 | 38128 ft | 425 kts | 266° |
| 2026-05-03 22:32 | 50.06200 | 9.11386 | 38089 ft | 424 kts | 266° |
| 2026-05-03 22:33 | 50.06063 | 9.02257 | 38024 ft | 424 kts | 266° |
| 2026-05-03 22:33 | 50.05920 | 8.93109 | 38015 ft | 421 kts | 266° |
| 2026-05-03 22:34 | 50.05770 | 8.84024 | 38019 ft | 419 kts | 266° |
| 2026-05-03 22:34 | 50.05632 | 8.74967 | 38021 ft | 417 kts | 266° |
| 2026-05-03 22:35 | 50.05546 | 8.65945 | 38030 ft | 416 kts | 266° |
| 2026-05-03 22:35 | 50.05457 | 8.56987 | 38027 ft | 416 kts | 266° |
| 2026-05-03 22:36 | 50.05355 | 8.47984 | 38024 ft | 417 kts | 266° |
| 2026-05-03 22:36 | 50.05242 | 8.38953 | 38016 ft | 418 kts | 266° |
| 2026-05-03 22:37 | 50.05121 | 8.29901 | 38010 ft | 419 kts | 266° |
| 2026-05-03 22:37 | 50.04995 | 8.20815 | 38022 ft | 421 kts | 266° |
| 2026-05-03 22:38 | 50.04860 | 8.11676 | 38018 ft | 423 kts | 266° |
| 2026-05-03 22:38 | 50.04195 | 8.02624 | 38041 ft | 421 kts | 256° |
| 2026-05-03 22:39 | 50.02959 | 7.93692 | 38019 ft | 423 kts | 256° |
| 2026-05-03 22:39 | 50.01930 | 7.86252 | 38021 ft | 424 kts | 256° |
| 2026-05-03 22:40 | 50.00505 | 7.75815 | 38041 ft | 424 kts | 256° |
| 2026-05-03 22:40 | 49.99483 | 7.68302 | 37427 ft | 424 kts | 257° |
| 2026-05-03 22:40 | 49.98686 | 7.62458 | 38083 ft | 413 kts | 256° |
| 2026-05-03 22:41 | 49.98290 | 7.59566 | 38028 ft | 413 kts | 256° |
| 2026-05-03 22:41 | 49.97086 | 7.50803 | 38026 ft | 417 kts | 256° |
| 2026-05-03 22:42 | 49.95860 | 7.41948 | 38079 ft | 422 kts | 256° |
| 2026-05-03 22:42 | 49.94617 | 7.33015 | 38079 ft | 425 kts | 256° |
| 2026-05-03 22:43 | 49.93364 | 7.24058 | 38078 ft | 420 kts | 256° |
| 2026-05-03 22:43 | 49.92136 | 7.15332 | 38002 ft | 409 kts | 256° |
| 2026-05-03 22:44 | 49.90919 | 7.06744 | 38000 ft | 407 kts | 256° |
| 2026-05-03 22:44 | 49.89706 | 6.98231 | 37998 ft | 406 kts | 256° |
| 2026-05-03 22:45 | 49.88480 | 6.89678 | 37990 ft | 406 kts | 256° |
| 2026-05-03 22:45 | 49.87245 | 6.81106 | 37996 ft | 408 kts | 255° |
| 2026-05-03 22:46 | 49.85996 | 6.72482 | 37996 ft | 411 kts | 255° |
| 2026-05-03 22:46 | 49.84733 | 6.63815 | 37386 ft | 413 kts | 256° |
| 2026-05-03 22:46 | 49.84111 | 6.59554 | 38076 ft | 410 kts | 255° |
| 2026-05-03 22:47 | 49.83474 | 6.55205 | 37995 ft | 414 kts | 255° |
| 2026-05-03 22:47 | 49.82259 | 6.46418 | 37976 ft | 421 kts | 261° |
| 2026-05-03 22:48 | 49.82348 | 6.37311 | 37976 ft | 429 kts | 276° |
| 2026-05-03 22:48 | 49.83746 | 6.28265 | 37998 ft | 433 kts | 280° |
| 2026-05-03 22:49 | 49.85144 | 6.19231 | 37986 ft | 433 kts | 275° |
| 2026-05-03 22:49 | 49.85227 | 6.14624 | 38004 ft | 425 kts | 258° |
| 2026-05-03 22:49 | 49.84518 | 6.10224 | 37985 ft | 421 kts | 246° |
| 2026-05-03 22:49 | 49.83166 | 6.06230 | 38031 ft | 418 kts | 234° |
| 2026-05-03 22:50 | 49.81462 | 6.02581 | 38030 ft | 418 kts | 232° |
| 2026-05-03 22:50 | 49.78013 | 5.95312 | 38018 ft | 419 kts | 233° |
| 2026-05-03 22:51 | 49.74687 | 5.87892 | 38008 ft | 420 kts | 239° |
| 2026-05-03 22:51 | 49.72400 | 5.79588 | 38025 ft | 421 kts | 249° |
| 2026-05-03 22:52 | 49.70447 | 5.71003 | 37479 ft | 427 kts | 249° |
| 2026-05-03 22:52 | 49.69453 | 5.66702 | 36935 ft | 424 kts | 248° |
| 2026-05-03 22:52 | 49.68458 | 5.62436 | 36416 ft | 420 kts | 248° |
| 2026-05-03 22:52 | 49.67465 | 5.58203 | 35830 ft | 419 kts | 248° |
| 2026-05-03 22:53 | 49.66469 | 5.53978 | 35198 ft | 418 kts | 248° |
| 2026-05-03 22:53 | 49.65477 | 5.49777 | 34600 ft | 416 kts | 249° |
| 2026-05-03 22:53 | 49.64500 | 5.45641 | 33997 ft | 415 kts | 249° |
| 2026-05-03 22:53 | 49.63514 | 5.41473 | 33522 ft | 410 kts | 249° |
| 2026-05-03 22:54 | 49.62543 | 5.37379 | 33093 ft | 404 kts | 248° |
| 2026-05-03 22:54 | 49.61629 | 5.33313 | 32784 ft | 395 kts | 250° |
| 2026-05-03 22:54 | 49.60791 | 5.29322 | 32503 ft | 386 kts | 250° |
| 2026-05-03 22:54 | 49.59973 | 5.25413 | 32227 ft | 377 kts | 251° |
| 2026-05-03 22:55 | 49.59360 | 5.21473 | 31966 ft | 381 kts | 258° |
| 2026-05-03 22:55 | 49.59090 | 5.17395 | 31532 ft | 383 kts | 266° |
| 2026-05-03 22:55 | 49.59137 | 5.13311 | 31165 ft | 379 kts | 267° |
| 2026-05-03 22:55 | 49.59198 | 5.09310 | 30734 ft | 377 kts | 267° |
| 2026-05-03 22:56 | 49.59253 | 5.05293 | 30318 ft | 374 kts | 266° |
| 2026-05-03 22:56 | 49.59300 | 5.01253 | 29876 ft | 371 kts | 266° |
| 2026-05-03 22:56 | 49.59340 | 4.97282 | 29405 ft | 368 kts | 266° |
| 2026-05-03 22:56 | 49.59377 | 4.93421 | 29018 ft | 364 kts | 266° |
| 2026-05-03 22:57 | 49.59410 | 4.89536 | 28568 ft | 361 kts | 265° |
| 2026-05-03 22:57 | 49.59443 | 4.85693 | 28157 ft | 357 kts | 265° |
| 2026-05-03 22:57 | 49.59473 | 4.81885 | 27742 ft | 354 kts | 266° |
| 2026-05-03 22:57 | 49.59501 | 4.78104 | 27322 ft | 352 kts | 266° |
| 2026-05-03 22:58 | 49.59524 | 4.74329 | 26773 ft | 353 kts | 266° |
| 2026-05-03 22:58 | 49.59540 | 4.70529 | 26361 ft | 358 kts | 266° |
| 2026-05-03 22:58 | 49.59554 | 4.66626 | 25930 ft | 368 kts | 266° |
| 2026-05-03 22:58 | 49.59568 | 4.62665 | 25481 ft | 368 kts | 266° |
| 2026-05-03 22:59 | 49.59584 | 4.58771 | 25064 ft | 365 kts | 266° |
| 2026-05-03 22:59 | 49.59600 | 4.54823 | 24638 ft | 363 kts | 266° |